Time;durP1;ratioP1;P1;durP2;ratioP2;P2;SDS_P1;SDS_P2;PMS_P1;PMS_P2;Temp;Humidity;BMP_temperature;BMP_pressure;BME280_temperature;BME280_humidity;BME280_pressure;Samples;Min_cycle;Max_cycle;Signal;HPM_P1;HPM_P2
2022/03/20 00:01:33;;;;;;;4.50;1.10;;;6.90;62.10;;;;;;5047655;28;20135;-82
2022/03/20 00:04:00;;;;;;;3.85;1.25;;;6.90;62.10;;;;;;5080835;28;20396;-82
2022/03/20 00:06:27;;;;;;;2.63;1.08;;;6.90;62.30;;;;;;5064469;28;20040;-82
2022/03/20 00:08:55;;;;;;;2.97;1.25;;;6.80;62.30;;;;;;5047565;28;20040;-82
2022/03/20 00:11:22;;;;;;;4.07;1.75;;;6.90;62.30;;;;;;5047747;28;20078;-82
2022/03/20 00:13:50;;;;;;;4.05;2.03;;;6.90;62.30;;;;;;5064172;28;20146;-82
2022/03/20 00:16:17;;;;;;;4.85;2.00;;;6.90;62.40;;;;;;5064165;28;20530;-82
2022/03/20 00:18:44;;;;;;;4.22;1.80;;;6.90;62.40;;;;;;5048056;28;20050;-83
2022/03/20 00:21:12;;;;;;;3.75;1.75;;;6.90;62.40;;;;;;5047324;28;20454;-83
2022/03/20 00:23:40;;;;;;;5.55;2.30;;;6.80;62.40;;;;;;5080906;28;20085;-83
2022/03/20 00:26:07;;;;;;;5.35;2.30;;;6.80;62.50;;;;;;5064010;28;20082;-83
2022/03/20 00:28:34;;;;;;;4.55;2.38;;;6.80;62.60;;;;;;5064202;28;20064;-81
2022/03/20 00:31:01;;;;;;;5.05;2.45;;;6.80;62.70;;;;;;5064226;28;20043;-82
2022/03/20 00:33:28;;;;;;;4.30;2.72;;;6.80;62.70;;;;;;5047497;28;20044;-82
2022/03/20 00:35:55;;;;;;;4.65;2.58;;;6.70;62.70;;;;;;5063726;28;20059;-82
2022/03/20 00:38:23;;;;;;;6.10;2.45;;;6.70;62.90;;;;;;5047553;28;20109;-81
2022/03/20 00:40:51;;;;;;;5.70;2.90;;;6.70;62.90;;;;;;5059429;28;20625;-81
2022/03/20 00:43:18;;;;;;;5.50;2.40;;;6.70;63.00;;;;;;5076357;28;20044;-81
2022/03/20 00:45:45;;;;;;;6.85;3.08;;;6.70;63.10;;;;;;5043343;28;20134;-81
2022/03/20 00:48:12;;;;;;;7.28;3.38;;;6.60;63.10;;;;;;5060009;28;20481;-81
2022/03/20 00:50:40;;;;;;;6.57;3.50;;;6.60;63.20;;;;;;5061450;28;20044;-82
2022/03/20 00:53:07;;;;;;;7.57;4.00;;;6.50;63.30;;;;;;5044820;28;20496;-82
2022/03/20 00:55:34;;;;;;;7.82;3.95;;;6.60;63.50;;;;;;5044092;28;20044;-82
2022/03/20 00:58:01;;;;;;;8.32;4.88;;;6.50;63.50;;;;;;5076802;28;20143;-82
2022/03/20 01:00:28;;;;;;;6.97;4.22;;;6.40;63.70;;;;;;5060313;28;20446;-82
2022/03/20 01:02:56;;;;;;;7.05;3.83;;;6.40;63.80;;;;;;5060243;28;20040;-82
2022/03/20 01:05:23;;;;;;;7.57;4.38;;;6.40;63.80;;;;;;5044067;28;20066;-83
2022/03/20 01:07:52;;;;;;;6.38;3.83;;;6.40;64.00;;;;;;5062415;28;20040;-83
2022/03/20 01:10:19;;;;;;;8.38;4.15;;;6.30;64.00;;;;;;5077283;28;20530;-82
2022/03/20 01:12:46;;;;;;;6.07;3.33;;;6.30;64.00;;;;;;5060243;28;20439;-82
2022/03/20 01:15:15;;;;;;;8.65;4.28;;;6.30;64.10;;;;;;5043877;28;20052;-82
2022/03/20 01:17:51;;;;;;;6.35;3.75;;;6.20;64.20;;;;;;5060880;28;20044;-82
2022/03/20 01:20:20;;;;;;;7.18;4.13;;;6.20;64.40;;;;;;5059837;28;20496;-82
2022/03/20 01:22:52;;;;;;;6.70;3.75;;;6.10;64.40;;;;;;5059798;28;20043;-81
2022/03/20 01:25:27;;;;;;;9.23;4.43;;;6.10;64.60;;;;;;5060312;28;20145;-82
2022/03/20 01:27:54;;;;;;;9.65;4.53;;;6.00;64.60;;;;;;5059406;28;20044;-81
2022/03/20 01:30:21;;;;;;;8.60;4.38;;;6.00;64.70;;;;;;5059959;28;20051;-82
2022/03/20 01:32:48;;;;;;;6.90;4.20;;;5.90;65.00;;;;;;5076405;28;20036;-81
2022/03/20 01:35:16;;;;;;;7.20;4.55;;;5.90;65.10;;;;;;5043233;28;20048;-82
2022/03/20 01:37:43;;;;;;;6.82;4.10;;;5.80;65.30;;;;;;5059867;28;20431;-82
2022/03/20 01:40:10;;;;;;;7.75;3.92;;;5.80;65.40;;;;;;5059534;28;20128;-83
2022/03/20 01:42:39;;;;;;;8.45;3.47;;;5.70;65.60;;;;;;5059522;28;20047;-82
2022/03/20 01:45:18;;;;;;;5.43;3.25;;;5.70;65.80;;;;;;5043156;28;20070;-83
2022/03/20 01:47:49;;;;;;;4.50;2.92;;;5.70;65.90;;;;;;5059343;28;20051;-82
2022/03/20 01:50:18;;;;;;;7.22;3.75;;;5.60;66.10;;;;;;5054815;28;20044;-82
2022/03/20 01:52:47;;;;;;;7.25;3.90;;;5.60;66.60;;;;;;5038792;28;20047;-83
2022/03/20 01:55:19;;;;;;;6.38;3.20;;;5.60;66.60;;;;;;5056283;28;20036;-82
2022/03/20 01:57:47;;;;;;;6.55;3.00;;;5.60;66.80;;;;;;5039052;28;20064;-82
2022/03/20 02:00:17;;;;;;;6.53;3.42;;;5.50;66.80;;;;;;5055562;28;20106;-82
2022/03/20 02:02:44;;;;;;;5.13;2.90;;;5.50;67.00;;;;;;5055178;28;20044;-82
2022/03/20 02:05:13;;;;;;;6.72;3.63;;;5.50;67.40;;;;;;5038557;28;20052;-83
2022/03/20 02:07:41;;;;;;;6.05;3.25;;;5.50;67.60;;;;;;5055689;28;20047;-83
2022/03/20 02:10:08;;;;;;;5.43;2.63;;;5.50;67.70;;;;;;5039280;28;20048;-82
2022/03/20 02:12:37;;;;;;;6.10;3.05;;;5.50;67.70;;;;;;5055713;28;20611;-83
2022/03/20 02:15:08;;;;;;;5.63;2.90;;;5.50;67.90;;;;;;5055647;28;20053;-84
2022/03/20 02:17:37;;;;;;;5.82;2.88;;;5.50;68.20;;;;;;5038900;28;20517;-83
2022/03/20 02:20:08;;;;;;;6.68;3.05;;;5.40;68.60;;;;;;5055595;28;20104;-82
2022/03/20 02:22:43;;;;;;;5.68;3.22;;;5.40;68.70;;;;;;5038913;28;20431;-82
2022/03/20 02:25:14;;;;;;;4.82;2.45;;;5.40;68.70;;;;;;5055143;28;20405;-81
2022/03/20 02:27:45;;;;;;;6.28;2.65;;;5.40;68.70;;;;;;5055335;28;20075;-81
2022/03/20 02:30:16;;;;;;;4.95;2.47;;;5.40;68.90;;;;;;5038928;28;20381;-82
2022/03/20 02:32:57;;;;;;;6.13;2.85;;;5.30;69.00;;;;;;5055107;28;20071;-81
2022/03/20 02:35:36;;;;;;;5.72;3.08;;;5.30;69.40;;;;;;5055075;28;20134;-81
2022/03/20 02:38:10;;;;;;;6.75;3.42;;;5.30;69.50;;;;;;5054899;28;20048;-81
2022/03/20 02:40:54;;;;;;;7.07;3.40;;;5.30;69.80;;;;;;5038629;28;20048;-82
2022/03/20 02:43:29;;;;;;;5.43;2.45;;;5.30;69.90;;;;;;5054689;28;20036;-82
2022/03/20 02:46:00;;;;;;;4.80;2.85;;;5.30;69.90;;;;;;5055261;28;20119;-81
2022/03/20 02:48:37;;;;;;;4.88;2.20;;;5.30;70.00;;;;;;5021952;28;20533;-82
2022/03/20 02:51:05;;;;;;;5.38;2.67;;;5.20;70.10;;;;;;5055052;28;20044;-81
2022/03/20 02:53:39;;;;;;;5.20;2.42;;;5.20;70.20;;;;;;5055949;28;20063;-81
2022/03/20 02:56:10;;;;;;;5.88;2.60;;;5.20;70.30;;;;;;5055186;28;20036;-83
2022/03/20 02:58:47;;;;;;;5.45;2.60;;;5.20;70.40;;;;;;5055311;28;20058;-81
2022/03/20 03:01:16;;;;;;;5.05;2.80;;;5.20;70.50;;;;;;5054856;28;20053;-82
2022/03/20 03:03:45;;;;;;;6.30;2.83;;;5.20;70.70;;;;;;5022208;28;20048;-82
2022/03/20 03:06:22;;;;;;;5.13;2.58;;;5.20;70.80;;;;;;5054833;28;20038;-83
2022/03/20 03:11:50;;;;;;;8.88;3.30;;;5.10;71.00;;;;;;5041852;28;20053;-82
2022/03/20 03:17:05;;;;;;;6.85;3.72;;;5.10;71.20;;;;;;5091719;28;20040;-82
2022/03/20 03:19:32;;;;;;;8.13;4.45;;;5.10;71.20;;;;;;5074757;28;20048;-82
2022/03/20 03:22:01;;;;;;;8.43;4.38;;;5.10;71.40;;;;;;5058152;28;20051;-81
2022/03/20 03:24:28;;;;;;;6.47;3.75;;;5.00;71.30;;;;;;5058469;28;20062;-82
2022/03/20 03:26:56;;;;;;;5.90;3.63;;;5.10;71.40;;;;;;5074247;28;20124;-82
2022/03/20 03:29:24;;;;;;;10.40;4.30;;;5.00;71.40;;;;;;5075017;28;20075;-83
2022/03/20 03:31:51;;;;;;;7.03;4.03;;;5.00;71.40;;;;;;5041369;28;20488;-83
2022/03/20 03:37:04;;;;;;;7.63;3.80;;;5.00;71.60;;;;;;5060466;28;20143;-82
2022/03/20 03:39:31;;;;;;;9.23;3.80;;;5.00;71.50;;;;;;5074698;28;20039;-84
2022/03/20 03:41:58;;;;;;;8.00;3.75;;;5.00;71.50;;;;;;5059288;28;20032;-83
2022/03/20 03:44:26;;;;;;;7.15;3.20;;;4.90;71.40;;;;;;5041462;28;20040;-83
2022/03/20 03:46:57;;;;;;;6.63;4.07;;;4.90;71.40;;;;;;5058253;28;20119;-83
2022/03/20 03:49:25;;;;;;;6.82;3.85;;;4.90;71.50;;;;;;5057917;28;20066;-82
2022/03/20 03:51:52;;;;;;;6.90;4.05;;;4.90;71.50;;;;;;5041301;28;20094;-82
2022/03/20 03:54:21;;;;;;;8.90;4.53;;;4.90;71.40;;;;;;5041841;28;20381;-82
2022/03/20 03:56:51;;;;;;;8.48;4.45;;;4.90;71.50;;;;;;5057564;28;20040;-82
2022/03/20 03:59:18;;;;;;;7.45;3.75;;;5.00;71.40;;;;;;5041305;28;20480;-82
2022/03/20 04:01:45;;;;;;;6.57;3.80;;;5.00;71.40;;;;;;5073734;28;20408;-82
2022/03/20 04:04:12;;;;;;;7.80;4.32;;;5.00;71.30;;;;;;5041107;28;20465;-82
2022/03/20 04:06:39;;;;;;;6.35;3.83;;;5.10;71.30;;;;;;5040963;28;20067;-81
2022/03/20 04:09:06;;;;;;;7.70;3.83;;;5.10;71.20;;;;;;5073616;28;20036;-81
2022/03/20 04:11:34;;;;;;;7.90;4.28;;;5.10;71.20;;;;;;5057181;28;20147;-81
2022/03/20 04:14:01;;;;;;;7.10;4.30;;;5.10;71.20;;;;;;5040594;28;20056;-81
2022/03/20 04:16:28;;;;;;;7.88;4.03;;;5.10;71.10;;;;;;5060326;28;20079;-82
2022/03/20 04:18:55;;;;;;;7.70;4.57;;;5.20;71.10;;;;;;5077628;28;20046;-81
2022/03/20 04:21:25;;;;;;;8.65;4.90;;;5.20;71.10;;;;;;5044392;28;20051;-81
2022/03/20 04:23:55;;;;;;;10.20;4.88;;;5.30;71.00;;;;;;5077493;28;20048;-80
2022/03/20 04:26:24;;;;;;;8.57;5.30;;;5.30;70.90;;;;;;5044536;28;20048;-80
2022/03/20 04:28:53;;;;;;;7.07;4.32;;;5.30;70.70;;;;;;5077261;28;20117;-81
2022/03/20 04:31:20;;;;;;;7.85;4.60;;;5.30;70.70;;;;;;5077433;28;20109;-81
2022/03/20 04:33:52;;;;;;;9.05;5.22;;;5.30;70.60;;;;;;5077356;28;20047;-81
2022/03/20 04:36:27;;;;;;;8.25;5.40;;;5.40;70.60;;;;;;5077262;28;20048;-80
2022/03/20 04:38:59;;;;;;;8.23;4.53;;;5.40;70.50;;;;;;5077345;28;20068;-82
2022/03/20 04:41:26;;;;;;;7.70;4.75;;;5.40;70.30;;;;;;5044368;28;20067;-81
2022/03/20 04:43:57;;;;;;;10.07;5.53;;;5.40;70.30;;;;;;5077541;28;20039;-81
2022/03/20 04:46:24;;;;;;;7.95;5.25;;;5.40;70.40;;;;;;5076250;28;20069;-82
2022/03/20 04:59:57;;;;;;;9.65;5.63;;;5.50;69.90;;;;;;5076928;28;20044;-83
2022/03/20 05:02:24;;;;;;;8.82;5.30;;;5.50;69.70;;;;;;5043672;28;20081;-83
2022/03/20 05:04:52;;;;;;;12.27;6.40;;;5.50;69.70;;;;;;5060246;28;20043;-82
2022/03/20 05:07:19;;;;;;;10.05;5.68;;;5.50;69.60;;;;;;5060139;28;20052;-82
2022/03/20 05:15:21;;;;;;;7.43;4.13;;;5.50;69.40;;;;;;5063016;28;20052;-83
2022/03/20 05:17:48;;;;;;;8.85;5.30;;;5.60;69.40;;;;;;5076774;28;20052;-83
2022/03/20 05:20:16;;;;;;;9.35;5.63;;;5.60;69.30;;;;;;5060474;28;20082;-82
2022/03/20 05:22:43;;;;;;;7.25;4.60;;;5.60;69.30;;;;;;5060222;28;20040;-83
2022/03/20 05:25:13;;;;;;;8.63;5.97;;;5.60;69.20;;;;;;5060384;28;20048;-83
2022/03/20 05:27:41;;;;;;;8.73;5.25;;;5.60;69.10;;;;;;5076424;28;20400;-83
2022/03/20 05:30:09;;;;;;;8.55;4.82;;;5.60;69.10;;;;;;5060205;28;20047;-82
2022/03/20 05:32:38;;;;;;;12.02;5.22;;;5.60;69.10;;;;;;5076478;28;20093;-81
2022/03/20 05:35:08;;;;;;;10.23;6.30;;;5.60;69.00;;;;;;5076536;28;20052;-83
2022/03/20 05:37:36;;;;;;;8.40;4.63;;;5.60;68.90;;;;;;5059949;28;20079;-83
2022/03/20 05:40:05;;;;;;;9.20;5.95;;;5.50;68.80;;;;;;5043573;28;20146;-83
2022/03/20 05:42:32;;;;;;;8.30;5.40;;;5.50;68.80;;;;;;5059504;28;20488;-83
2022/03/20 05:45:02;;;;;;;7.88;5.00;;;5.60;68.80;;;;;;5059505;28;20048;-83
2022/03/20 05:47:31;;;;;;;8.63;5.00;;;5.60;68.80;;;;;;5060058;28;20085;-83
2022/03/20 05:50:00;;;;;;;9.10;5.23;;;5.50;68.80;;;;;;5043136;28;20076;-83
2022/03/20 05:52:31;;;;;;;7.22;4.95;;;5.50;68.70;;;;;;5060432;28;20063;-83
2022/03/20 05:54:58;;;;;;;7.78;4.88;;;5.60;68.70;;;;;;5059487;28;20101;-83
2022/03/20 06:00:16;;;;;;;7.97;4.68;;;5.50;68.60;;;;;;5075646;28;20048;-83
2022/03/20 06:02:43;;;;;;;8.57;5.03;;;5.50;69.10;;;;;;5043401;28;20063;-82
2022/03/20 06:05:11;;;;;;;9.93;5.85;;;5.60;68.50;;;;;;5059220;28;20040;-82
2022/03/20 06:07:43;;;;;;;10.38;6.00;;;5.50;68.30;;;;;;5042580;28;20087;-82
2022/03/20 06:10:15;;;;;;;10.05;5.57;;;5.50;68.30;;;;;;5059053;28;20047;-82
2022/03/20 06:12:43;;;;;;;9.48;6.25;;;5.50;68.30;;;;;;5060001;28;20118;-82
2022/03/20 06:15:14;;;;;;;9.55;6.00;;;5.50;68.10;;;;;;5076820;28;20150;-81
2022/03/20 06:17:44;;;;;;;8.07;5.80;;;5.50;68.20;;;;;;5042783;28;20051;-82
2022/03/20 06:20:14;;;;;;;9.13;5.43;;;5.50;68.10;;;;;;5059358;28;20070;-83
2022/03/20 06:22:43;;;;;;;10.85;5.78;;;5.50;68.00;;;;;;5074951;28;20143;-81
2022/03/20 06:25:15;;;;;;;8.65;5.10;;;5.50;68.00;;;;;;5058534;28;20146;-81
2022/03/20 06:27:50;;;;;;;10.25;6.72;;;5.50;67.90;;;;;;5059297;28;20040;-81
2022/03/20 06:30:19;;;;;;;10.68;6.38;;;5.60;67.80;;;;;;5059081;28;20070;-81
2022/03/20 06:32:50;;;;;;;11.40;6.40;;;5.60;67.60;;;;;;5059506;28;20072;-81
2022/03/20 06:35:19;;;;;;;10.68;6.35;;;5.60;67.50;;;;;;5092816;28;20342;-81
2022/03/20 06:37:53;;;;;;;12.80;7.78;;;5.60;67.30;;;;;;5041503;28;20055;-80
2022/03/20 06:40:21;;;;;;;13.40;7.22;;;5.70;67.10;;;;;;5054672;28;20077;-81
2022/03/20 06:42:49;;;;;;;10.65;6.28;;;5.70;67.20;;;;;;5038270;28;20042;-80
2022/03/20 06:45:20;;;;;;;11.27;5.68;;;5.70;67.10;;;;;;5054630;28;20052;-80
2022/03/20 06:47:53;;;;;;;10.57;6.47;;;5.70;67.10;;;;;;5038725;28;20044;-81
2022/03/20 06:50:21;;;;;;;10.05;6.13;;;5.60;66.90;;;;;;5054586;28;20056;-81
2022/03/20 06:52:51;;;;;;;12.38;7.32;;;5.60;66.80;;;;;;5038790;28;20059;-89
2022/03/20 06:55:19;;;;;;;11.45;7.47;;;5.50;66.60;;;;;;5039458;28;20075;-88
2022/03/20 06:57:49;;;;;;;12.10;6.63;;;5.60;66.70;;;;;;5022909;28;20045;-88
2022/03/20 07:00:19;;;;;;;10.10;6.43;;;5.50;66.60;;;;;;5039812;28;20059;-86
2022/03/20 07:02:56;;;;;;;13.18;7.78;;;5.50;66.50;;;;;;5040983;28;20127;-89
2022/03/20 07:05:31;;;;;;;11.50;6.90;;;5.60;66.30;;;;;;5040283;28;20041;-90
2022/03/20 07:08:02;;;;;;;11.18;7.45;;;5.60;66.30;;;;;;5039248;28;20040;-90
2022/03/20 07:10:36;;;;;;;12.52;6.82;;;5.60;66.10;;;;;;5039152;28;20098;-86
2022/03/20 07:15:57;;;;;;;10.50;5.63;;;5.50;66.20;;;;;;5055487;28;20501;-86
2022/03/20 07:18:30;;;;;;;11.18;6.55;;;5.50;66.10;;;;;;5039210;28;20052;-87
2022/03/20 07:21:03;;;;;;;11.77;7.25;;;5.50;66.10;;;;;;5039564;28;20049;-87
2022/03/20 07:23:31;;;;;;;9.95;6.68;;;5.60;65.90;;;;;;5055369;28;20055;-86
2022/03/20 07:31:49;;;;;;;13.20;6.90;;;5.70;65.50;;;;;;5041790;28;20575;-86
2022/03/20 07:34:19;;;;;;;13.18;6.95;;;5.70;65.20;;;;;;5039519;28;20064;-88
2022/03/20 07:36:56;;;;;;;11.80;6.88;;;5.80;65.20;;;;;;5039524;28;20060;-85
2022/03/20 07:39:27;;;;;;;11.07;6.25;;;5.80;65.10;;;;;;5040329;28;20045;-85
2022/03/20 07:42:04;;;;;;;11.82;7.25;;;5.90;65.00;;;;;;5039536;28;20041;-88
2022/03/20 07:44:52;;;;;;;12.15;6.47;;;5.90;64.80;;;;;;5038359;28;20041;-82
2022/03/20 07:47:34;;;;;;;13.80;7.43;;;5.90;64.80;;;;;;5071246;28;20043;-84
2022/03/20 07:50:11;;;;;;;13.90;8.20;;;6.00;64.60;;;;;;5024021;28;20118;-83
2022/03/20 07:52:57;;;;;;;11.35;7.22;;;6.00;64.30;;;;;;5027263;28;20480;-84
2022/03/20 07:55:28;;;;;;;10.73;7.25;;;6.00;64.30;;;;;;5042071;28;20048;-84
2022/03/20 07:58:06;;;;;;;12.07;7.40;;;6.00;64.30;;;;;;5043061;28;20144;-84
2022/03/20 08:00:44;;;;;;;12.23;7.18;;;6.00;64.10;;;;;;5042444;28;20078;-84
2022/03/20 08:03:28;;;;;;;10.95;6.43;;;6.10;64.10;;;;;;5043921;28;20044;-85
2022/03/20 08:06:00;;;;;;;10.82;6.32;;;6.20;63.90;;;;;;5042141;28;20488;-84
2022/03/20 08:08:49;;;;;;;11.63;6.53;;;6.20;63.80;;;;;;5040276;28;20040;-83
2022/03/20 08:11:47;;;;;;;;;;;;;;;;;;;;;
2022/03/20 08:14:28;;;;;;;13.02;8.40;;;6.30;63.30;;;;;;5059381;28;20037;-83
2022/03/20 08:17:17;;;;;;;11.70;7.40;;;6.40;63.10;;;;;;5046253;28;20055;-83
2022/03/20 08:19:58;;;;;;;13.75;8.40;;;6.50;63.00;;;;;;5045752;28;20504;-83
2022/03/20 08:22:32;;;;;;;13.55;7.68;;;6.60;62.80;;;;;;5043692;28;20041;-83
2022/03/20 08:25:06;;;;;;;14.30;8.07;;;6.70;62.70;;;;;;5058617;28;20072;-83
2022/03/20 08:27:44;;;;;;;13.82;7.18;;;6.70;62.20;;;;;;5042168;28;20044;-84
2022/03/20 08:30:19;;;;;;;11.20;7.47;;;6.80;62.10;;;;;;5041198;28;20048;-83
2022/03/20 08:33:03;;;;;;;13.38;7.82;;;6.80;61.90;;;;;;5055901;28;20503;-83
2022/03/20 08:35:39;;;;;;;12.30;8.23;;;6.90;61.60;;;;;;5042036;28;20063;-83
2022/03/20 08:38:07;;;;;;;10.90;7.20;;;6.90;61.40;;;;;;5026296;28;20048;-83
2022/03/20 08:41:13;;;;;;;12.48;8.20;;;7.00;61.40;;;;;;5042055;28;20436;-84
2022/03/20 08:43:54;;;;;;;16.40;8.95;;;7.10;60.90;;;;;;5026706;28;20084;-83
2022/03/20 08:46:27;;;;;;;13.05;8.20;;;7.10;60.60;;;;;;5041923;28;20059;-83
2022/03/20 08:49:13;;;;;;;12.38;8.10;;;7.10;60.30;;;;;;5041170;28;20148;-82
2022/03/20 08:51:46;;;;;;;12.55;8.07;;;7.20;60.30;;;;;;5060753;28;20051;-84
2022/03/20 08:55:04;;;;;;;14.60;8.43;;;7.30;60.30;;;;;;5057795;28;20043;-83
2022/03/20 08:58:09;;;;;;;;;;;;;;;;;;;;;
2022/03/20 09:01:27;;;;;;;14.20;8.43;;;7.30;59.70;;;;;;5063500;28;20049;-84
2022/03/20 09:04:27;;;;;;;13.60;8.75;;;7.40;59.60;;;;;;5056900;28;20041;-83
2022/03/20 09:07:55;;;;;;;12.85;8.32;;;7.40;59.30;;;;;;5008400;28;20043;-83
2022/03/20 09:23:54;;;;;;;15.52;8.93;;;7.70;59.10;;;;;;6095795;22;4058643;-79
2022/03/20 09:26:21;;;;;;;12.80;7.85;;;7.80;58.70;;;;;;6171366;23;20098;-79
2022/03/20 09:28:49;;;;;;;10.88;7.07;;;7.80;58.50;;;;;;6117968;23;20682;-80
2022/03/20 09:31:16;;;;;;;16.75;9.95;;;7.90;58.50;;;;;;6166306;23;20507;-80
2022/03/20 09:33:57;;;;;;;14.63;8.77;;;8.00;57.60;;;;;;6142969;23;20017;-81
2022/03/20 09:36:30;;;;;;;15.32;9.40;;;8.00;57.90;;;;;;6141777;23;20347;-82
2022/03/20 09:39:11;;;;;;;14.65;9.45;;;8.10;57.60;;;;;;6169435;23;20383;-80
2022/03/20 09:41:45;;;;;;;15.00;9.55;;;8.10;57.70;;;;;;6190682;23;20047;-80
2022/03/20 09:45:07;;;;;;;12.82;8.05;;;8.20;57.50;;;;;;6193100;23;20032;-81
2022/03/20 09:57:16;;;;;;;12.50;7.38;;;8.70;56.70;;;;;;6042968;23;20031;-81
2022/03/20 10:00:17;;;;;;;12.68;7.57;;;8.80;56.70;;;;;;5998697;23;20027;-80
2022/03/20 10:04:11;;;;;;;14.00;8.98;;;8.80;56.60;;;;;;6021177;23;20443;-81
2022/03/20 10:07:51;;;;;;;13.88;8.25;;;8.90;56.50;;;;;;6045489;23;20149;-80
2022/03/20 10:10:39;;;;;;;13.23;7.43;;;8.90;56.60;;;;;;6059591;23;20018;-81
2022/03/20 10:13:32;;;;;;;10.77;7.07;;;9.00;56.60;;;;;;6075049;23;20018;-80
2022/03/20 10:16:17;;;;;;;12.90;8.05;;;9.00;56.40;;;;;;6052414;23;20105;-81
2022/03/20 10:23:03;;;;;;;;;;;;;;;;;;;;;
2022/03/20 10:35:29;;;;;;;15.00;8.25;;;9.30;56.10;;;;;;5926667;24;20009;-80
2022/03/20 10:39:26;;;;;;;15.07;9.43;;;9.30;55.70;;;;;;5918240;24;20028;-81
2022/03/20 10:53:06;;;;;;;13.90;9.07;;;9.40;55.40;;;;;;5024196;27;3616117;-82
2022/03/20 10:55:33;;;;;;;15.70;9.32;;;9.60;54.90;;;;;;5112299;28;20044;-82
2022/03/20 10:58:39;;;;;;;13.85;8.95;;;9.60;55.00;;;;;;5115751;28;20043;-81
2022/03/20 11:01:43;;;;;;;17.58;10.55;;;9.70;55.10;;;;;;5126340;28;20054;-81
2022/03/20 11:04:58;;;;;;;15.73;9.68;;;9.70;54.90;;;;;;5129284;28;20043;-81
2022/03/20 11:07:50;;;;;;;15.05;10.43;;;9.60;54.90;;;;;;5109985;28;20062;-81
2022/03/20 11:10:57;;;;;;;15.25;9.80;;;9.50;54.90;;;;;;5113356;28;20503;-81
2022/03/20 11:13:27;;;;;;;15.70;10.07;;;9.50;54.90;;;;;;5078864;28;20059;-84
2022/03/20 11:15:59;;;;;;;17.23;11.82;;;9.50;54.90;;;;;;5106406;28;20415;-84
2022/03/20 11:18:33;;;;;;;18.52;11.88;;;9.50;54.50;;;;;;5114214;28;20044;-83
2022/03/20 11:25:56;;;;;;;15.13;9.37;;;9.40;54.40;;;;;;5069252;28;20048;-83
2022/03/20 11:38:11;;;;;;;12.55;8.10;;;9.50;54.80;;;;;;5067064;28;20040;-83
2022/03/20 11:41:24;;;;;;;15.48;9.45;;;9.60;54.90;;;;;;5046622;28;20053;-84
2022/03/20 11:44:22;;;;;;;13.20;8.43;;;9.50;54.60;;;;;;5025862;28;20053;-84
2022/03/20 11:52:15;;;;;;;12.05;7.60;;;9.50;54.80;;;;;;5075881;28;20041;-83
2022/03/20 12:00:57;;;;;;;11.75;7.40;;;9.50;54.90;;;;;;5046547;28;20441;-83
2022/03/20 12:09:19;;;;;;;10.43;6.88;;;9.70;54.90;;;;;;5032999;28;20051;-83
2022/03/20 12:12:54;;;;;;;10.00;6.30;;;9.80;54.70;;;;;;5047242;28;20049;-82
2022/03/20 12:19:55;;;;;;;13.68;8.70;;;10.00;54.60;;;;;;4993198;28;20129;-82
2022/03/20 12:23:51;;;;;;;13.00;8.13;;;10.00;54.60;;;;;;4944418;29;20054;-83
2022/03/20 12:27:03;;;;;;;12.80;6.88;;;10.00;54.60;;;;;;4954406;29;20062;-85
2022/03/20 12:30:07;;;;;;;10.82;6.47;;;10.00;54.70;;;;;;4950518;28;20065;-84
2022/03/20 12:33:21;;;;;;;12.02;6.70;;;10.00;54.70;;;;;;4968149;28;20054;-82
2022/03/20 12:35:53;;;;;;;13.88;8.77;;;10.10;54.70;;;;;;4993267;28;20078;-88
2022/03/20 12:38:41;;;;;;;12.63;7.50;;;10.00;54.60;;;;;;4992747;28;20128;-86
2022/03/20 12:41:11;;;;;;;11.38;7.53;;;10.00;55.30;;;;;;4976448;28;20101;-83
2022/03/20 12:43:41;;;;;;;12.17;7.03;;;10.00;54.80;;;;;;4976485;28;20050;-83
2022/03/20 12:46:17;;;;;;;14.77;8.60;;;10.10;54.80;;;;;;4977326;28;20092;-82
2022/03/20 12:48:54;;;;;;;12.95;7.25;;;10.20;54.60;;;;;;4977604;28;20950;-83
2022/03/20 12:51:35;;;;;;;10.38;6.07;;;10.20;54.60;;;;;;4992705;28;20050;-83
2022/03/20 12:54:10;;;;;;;9.93;6.63;;;10.30;54.60;;;;;;4977736;28;20104;-84
2022/03/20 12:57:01;;;;;;;10.18;6.82;;;10.30;54.60;;;;;;4994652;28;20046;-82
2022/03/20 12:59:49;;;;;;;11.93;7.72;;;10.30;54.60;;;;;;5033429;28;20052;-83
2022/03/20 13:02:16;;;;;;;11.38;7.32;;;10.30;54.60;;;;;;5075052;28;20068;-82
2022/03/20 13:04:48;;;;;;;11.70;7.32;;;10.20;54.60;;;;;;5059457;28;20043;-79
2022/03/20 13:07:25;;;;;;;12.18;7.22;;;10.20;54.60;;;;;;5043390;28;20109;-81
2022/03/20 13:09:59;;;;;;;10.50;6.70;;;10.20;54.70;;;;;;5075907;28;20052;-79
2022/03/20 13:12:26;;;;;;;11.55;7.13;;;10.10;54.70;;;;;;5075643;28;20509;-79
2022/03/20 13:14:55;;;;;;;9.63;6.57;;;10.10;54.80;;;;;;5058184;28;20442;-79
2022/03/20 13:17:25;;;;;;;11.73;8.20;;;10.00;54.90;;;;;;5059240;28;20048;-84
2022/03/20 13:23:15;;;;;;;12.02;8.70;;;9.90;55.00;;;;;;5063550;28;20052;-90
2022/03/20 13:25:50;;;;;;;11.38;6.88;;;9.80;55.20;;;;;;5060579;28;20139;-88
2022/03/20 13:28:41;;;;;;;12.43;7.78;;;9.80;55.30;;;;;;5060328;28;20071;-88
2022/03/20 13:31:30;;;;;;;;;;;;;;;;;;;;;
2022/03/20 13:34:10;;;;;;;14.43;9.25;;;9.60;55.40;;;;;;5063445;28;20094;-92
2022/03/20 13:36:39;;;;;;;16.83;11.43;;;9.60;55.70;;;;;;5060265;28;20052;-91
2022/03/20 13:39:25;;;;;;;17.65;11.05;;;9.50;56.00;;;;;;5062754;28;20503;-83
2022/03/20 13:41:59;;;;;;;19.50;12.50;;;9.50;56.50;;;;;;5042560;28;20056;-86
2022/03/20 13:44:37;;;;;;;16.33;10.95;;;9.40;57.00;;;;;;5075882;28;20476;-85
2022/03/20 13:47:06;;;;;;;17.23;11.05;;;9.30;57.30;;;;;;5075407;28;20036;-82
2022/03/20 13:49:34;;;;;;;22.00;12.77;;;9.20;57.60;;;;;;5042710;28;20039;-84
2022/03/20 13:52:02;;;;;;;18.38;11.27;;;9.20;57.90;;;;;;5075409;28;20044;-88
2022/03/20 13:54:29;;;;;;;15.65;9.75;;;9.10;58.20;;;;;;5058300;28;20055;-82
2022/03/20 13:57:14;;;;;;;16.70;11.60;;;9.10;58.40;;;;;;5074954;28;20098;-82
2022/03/20 13:59:53;;;;;;;15.95;10.82;;;9.10;58.70;;;;;;5074065;28;20051;-83
2022/03/20 14:02:21;;;;;;;15.70;9.98;;;9.00;58.80;;;;;;5075007;28;20044;-85
2022/03/20 14:04:51;;;;;;;12.77;8.48;;;9.00;59.00;;;;;;5058868;28;20459;-84
2022/03/20 14:07:21;;;;;;;11.23;7.53;;;9.00;59.20;;;;;;5058586;28;20048;-87
2022/03/20 14:10:27;;;;;;;11.48;7.35;;;9.00;59.40;;;;;;5060284;28;20048;-88
2022/03/20 14:13:32;;;;;;;12.20;7.85;;;9.00;59.50;;;;;;5096217;28;20055;-86
2022/03/20 14:16:11;;;;;;;12.70;7.75;;;9.00;59.70;;;;;;5075332;28;20044;-87
2022/03/20 14:19:07;;;;;;;12.73;8.25;;;9.00;59.80;;;;;;5072913;28;20055;-87
2022/03/20 14:21:37;;;;;;;15.57;8.98;;;8.90;60.10;;;;;;5076656;28;20080;-89
2022/03/20 14:24:07;;;;;;;13.75;8.40;;;8.90;60.40;;;;;;5093450;28;20051;-89
2022/03/20 14:26:37;;;;;;;13.30;8.68;;;8.90;60.70;;;;;;5075671;28;20044;-86
2022/03/20 14:41:35;;;;;;;13.98;8.70;;;8.80;61.90;;;;;;5094262;28;20058;-85
2022/03/20 14:44:15;;;;;;;13.98;8.45;;;8.80;62.20;;;;;;5092982;28;20082;-79
2022/03/20 14:46:44;;;;;;;11.82;7.82;;;8.80;62.40;;;;;;5091836;28;20052;-86
2022/03/20 14:49:13;;;;;;;14.90;9.30;;;8.80;62.50;;;;;;5092801;28;20075;-87
2022/03/20 14:51:43;;;;;;;13.75;8.93;;;8.90;62.70;;;;;;5075800;28;20039;-84
2022/03/20 14:54:25;;;;;;;11.93;7.28;;;8.90;62.80;;;;;;5088615;28;20462;-86
2022/03/20 14:56:56;;;;;;;12.55;8.02;;;9.00;62.90;;;;;;5091999;28;20047;-85
2022/03/20 14:59:26;;;;;;;11.65;8.13;;;9.20;62.80;;;;;;5092543;28;20409;-81
2022/03/20 15:01:53;;;;;;;13.48;8.05;;;9.40;62.80;;;;;;5074611;28;20072;-83
2022/03/20 15:04:21;;;;;;;14.38;8.98;;;9.50;62.70;;;;;;5074725;28;20048;-79
2022/03/20 15:06:53;;;;;;;10.93;7.68;;;9.70;62.70;;;;;;5108119;28;20040;-86
2022/03/20 15:12:07;;;;;;;11.90;7.85;;;9.80;62.60;;;;;;5091243;28;20047;-84
2022/03/20 15:14:35;;;;;;;11.93;7.30;;;9.90;62.80;;;;;;5074666;28;20071;-84
2022/03/20 15:17:02;;;;;;;14.65;8.00;;;9.90;62.90;;;;;;5075109;28;20040;-83
2022/03/20 15:19:30;;;;;;;12.50;7.85;;;9.90;63.10;;;;;;5074580;28;20157;-84
2022/03/20 15:21:58;;;;;;;9.88;6.60;;;9.90;63.20;;;;;;5074896;28;20515;-84
2022/03/20 15:24:25;;;;;;;12.88;8.32;;;9.90;63.30;;;;;;5074757;28;20492;-80
2022/03/20 15:26:52;;;;;;;15.25;9.13;;;9.90;63.50;;;;;;5074401;28;20513;-84
2022/03/20 15:29:20;;;;;;;15.48;9.43;;;9.80;63.60;;;;;;5091002;28;20051;-83
2022/03/20 15:31:49;;;;;;;11.52;8.27;;;9.80;63.80;;;;;;5074409;28;20075;-84
2022/03/20 15:34:18;;;;;;;11.93;7.25;;;9.80;64.50;;;;;;5074171;28;20484;-83
2022/03/20 15:36:46;;;;;;;12.88;7.63;;;9.90;64.00;;;;;;5074159;28;20411;-83
2022/03/20 15:39:19;;;;;;;10.63;7.38;;;9.90;64.10;;;;;;5077781;28;20048;-86
2022/03/20 15:41:51;;;;;;;10.38;6.43;;;9.90;64.10;;;;;;5094554;28;20043;-81
2022/03/20 15:44:19;;;;;;;11.07;7.22;;;9.90;64.80;;;;;;5076890;28;20072;-80
2022/03/20 15:46:49;;;;;;;13.45;7.32;;;9.90;64.30;;;;;;5060656;28;20565;-81
2022/03/20 15:49:17;;;;;;;11.88;7.03;;;9.90;64.40;;;;;;5060492;28;20043;-81
2022/03/20 15:51:46;;;;;;;12.05;7.57;;;9.90;65.10;;;;;;5077772;28;20507;-82
2022/03/20 15:54:22;;;;;;;11.93;7.85;;;9.90;64.40;;;;;;5078144;28;20054;-92
2022/03/20 15:57:04;;;;;;;11.10;6.63;;;9.90;64.60;;;;;;5080798;28;20055;-90